Time;durP1;ratioP1;P1;durP2;ratioP2;P2;SDS_P1;SDS_P2;PMS_P1;PMS_P2;Temp;Humidity;BMP_temperature;BMP_pressure;BME280_temperature;BME280_humidity;BME280_pressure;Samples;Min_cycle;Max_cycle;Signal;HPM_P1;HPM_P2
2022/04/03 00:00:43;;;;;;;8.52;6.10;;;6.70;99.90;;;6.84;56.98;102238.41;5072118;28;20173;-63
2022/04/03 00:03:12;;;;;;;6.80;5.97;;;6.70;99.90;;;6.96;56.61;102254.59;5072203;28;20063;-63
2022/04/03 00:05:43;;;;;;;10.43;6.40;;;6.70;99.90;;;6.75;56.57;102248.63;5072176;28;20045;-62
2022/04/03 00:08:13;;;;;;;10.95;6.70;;;6.50;99.90;;;6.76;56.40;102242.53;5072012;28;20478;-63
2022/04/03 00:10:45;;;;;;;7.72;6.15;;;6.50;99.90;;;6.75;56.47;102246.91;5072544;28;20142;-63
2022/04/03 00:13:15;;;;;;;8.15;6.57;;;6.50;99.90;;;6.86;56.55;102248.16;5072428;28;20098;-63
2022/04/03 00:15:43;;;;;;;9.07;6.23;;;6.60;99.90;;;6.85;57.49;102245.47;5072148;28;20422;-63
2022/04/03 00:18:12;;;;;;;6.13;5.55;;;6.60;99.90;;;6.81;58.21;102252.38;5072018;28;20317;-63
2022/04/03 00:20:42;;;;;;;6.93;6.03;;;6.50;99.90;;;6.82;58.75;102243.63;5072806;28;20165;-63
2022/04/03 00:23:11;;;;;;;7.13;6.43;;;6.60;99.90;;;6.81;59.25;102260.25;5071239;28;20135;-62
2022/04/03 00:25:40;;;;;;;6.95;6.25;;;6.50;99.90;;;6.82;59.28;102255.88;5072200;28;20121;-63
2022/04/03 00:28:08;;;;;;;7.97;6.47;;;6.50;99.90;;;6.77;59.06;102247.84;5072294;28;20045;-62
2022/04/03 00:30:38;;;;;;;7.55;6.75;;;6.50;99.90;;;6.77;58.58;102257.47;5072130;28;20394;-63
2022/04/03 00:33:08;;;;;;;7.72;6.45;;;6.50;99.90;;;6.75;58.62;102259.16;5072762;28;20040;-63
2022/04/03 00:35:37;;;;;;;8.20;6.28;;;6.40;99.90;;;6.71;58.62;102258.16;5072555;28;20048;-63
2022/04/03 00:38:08;;;;;;;7.97;6.03;;;6.40;99.90;;;6.69;58.96;102253.69;5072220;28;20047;-63
2022/04/03 00:40:36;;;;;;;14.20;6.32;;;6.40;99.90;;;6.75;59.08;102251.25;5070699;28;20063;-63
2022/04/03 00:43:05;;;;;;;10.65;7.60;;;6.40;99.90;;;6.76;59.04;102247.78;5072037;28;20115;-63
2022/04/03 00:45:34;;;;;;;10.18;6.40;;;6.40;99.90;;;6.75;59.06;102246.91;5072026;28;20048;-63
2022/04/03 00:48:04;;;;;;;6.80;6.15;;;6.50;99.90;;;6.70;59.09;102245.84;5071767;28;20129;-63
2022/04/03 00:50:32;;;;;;;9.68;6.47;;;6.40;99.90;;;6.68;59.43;102246.66;5071864;28;20037;-63
2022/04/03 00:53:01;;;;;;;7.80;6.32;;;6.50;99.90;;;6.73;59.85;102242.44;5071797;28;20071;-63
2022/04/03 00:55:29;;;;;;;10.85;6.40;;;6.50;99.90;;;6.57;60.00;102234.88;5071731;28;20041;-63
2022/04/03 00:57:59;;;;;;;7.10;6.35;;;6.40;99.90;;;6.70;59.90;102239.69;5071625;28;20052;-63
2022/04/03 01:00:28;;;;;;;9.70;6.32;;;6.40;99.90;;;6.61;60.54;102242.03;5071487;28;20052;-63
2022/04/03 01:02:56;;;;;;;7.60;6.90;;;6.30;99.90;;;6.46;60.97;102233.63;5072962;28;20068;-63
2022/04/03 01:05:26;;;;;;;7.82;6.13;;;6.20;99.90;;;6.56;61.26;102246.25;5075603;28;20552;-63
2022/04/03 01:07:55;;;;;;;12.48;6.50;;;6.20;99.90;;;6.58;61.35;102244.56;5075353;28;20116;-62
2022/04/03 01:10:24;;;;;;;9.35;6.47;;;6.30;99.90;;;6.33;60.95;102222.69;5075327;28;20037;-63
2022/04/03 01:12:54;;;;;;;7.03;6.32;;;6.30;99.90;;;6.68;60.63;102241.41;5075324;28;20048;-63
2022/04/03 01:15:22;;;;;;;8.90;6.68;;;6.40;99.90;;;6.62;60.50;102236.81;5108097;28;20053;-62
2022/04/03 01:17:51;;;;;;;9.43;6.75;;;6.40;99.90;;;6.54;60.82;102237.41;5074925;28;20041;-63
2022/04/03 01:20:19;;;;;;;8.57;7.65;;;6.30;99.90;;;6.15;61.55;102213.28;5074869;28;20098;-63
2022/04/03 01:22:49;;;;;;;8.13;7.32;;;6.10;99.90;;;6.27;62.38;102238.22;5073888;28;20140;-63
2022/04/03 01:25:19;;;;;;;7.40;6.70;;;6.00;99.90;;;6.31;62.25;102233.97;5074748;28;20037;-63
2022/04/03 01:27:47;;;;;;;12.83;6.50;;;6.00;99.90;;;6.04;62.32;102183.13;5073606;28;20106;-63
2022/04/03 01:30:16;;;;;;;7.55;6.85;;;6.00;99.90;;;6.34;62.25;102235.00;5074637;28;20640;-63
2022/04/03 01:32:44;;;;;;;8.13;6.07;;;6.00;99.90;;;6.11;62.38;102172.91;5074602;28;20122;-63
2022/04/03 01:35:13;;;;;;;12.40;7.03;;;6.10;99.90;;;6.44;62.35;102230.06;5074813;28;20049;-63
2022/04/03 01:37:42;;;;;;;7.47;6.45;;;6.10;99.90;;;6.46;62.57;102231.00;5073068;28;20052;-63
2022/04/03 01:40:12;;;;;;;11.10;6.88;;;6.20;99.90;;;6.47;62.04;102217.00;5074762;28;20109;-63
2022/04/03 01:42:42;;;;;;;9.27;7.22;;;6.20;99.90;;;6.36;62.41;102221.91;5074470;28;20044;-64
2022/04/03 01:45:11;;;;;;;8.70;6.20;;;6.10;99.90;;;6.31;62.76;102220.84;5074666;28;20098;-63
2022/04/03 01:47:40;;;;;;;7.32;6.25;;;6.00;99.90;;;6.26;63.12;102219.78;5073494;28;20110;-63
2022/04/03 01:50:09;;;;;;;7.13;6.37;;;5.90;99.90;;;6.23;63.53;102212.69;5074568;28;20079;-63
2022/04/03 01:52:38;;;;;;;8.27;6.38;;;6.00;99.90;;;6.24;63.45;102209.25;5074546;28;20044;-63
2022/04/03 01:55:08;;;;;;;8.35;6.32;;;6.00;99.90;;;6.28;63.46;102212.88;5074152;28;20152;-63
2022/04/03 01:57:36;;;;;;;10.43;6.38;;;6.00;99.90;;;6.39;63.56;102217.66;5074400;28;20048;-63
2022/04/03 02:00:09;;;;;;;9.32;6.50;;;6.00;99.90;;;6.34;64.17;102215.72;5074073;28;20040;-62
2022/04/03 02:02:38;;;;;;;12.80;6.75;;;6.00;99.90;;;6.34;64.65;102206.09;5074524;28;20505;-63
2022/04/03 02:05:09;;;;;;;7.63;6.18;;;6.00;99.90;;;6.47;63.87;102235.41;5074759;28;20118;-63
2022/04/03 02:07:38;;;;;;;9.27;7.05;;;6.20;99.90;;;6.35;63.86;102186.84;5074277;28;20098;-63
2022/04/03 02:10:12;;;;;;;8.35;6.65;;;6.20;99.90;;;6.36;64.47;102212.31;5074139;28;20123;-63
2022/04/03 02:12:40;;;;;;;7.82;6.32;;;6.10;99.90;;;6.46;64.01;102210.88;5073062;28;20055;-63
2022/04/03 02:15:12;;;;;;;9.35;7.10;;;6.10;99.90;;;6.38;64.49;102208.00;5074113;28;20123;-63
2022/04/03 02:17:41;;;;;;;6.10;5.50;;;6.10;99.90;;;6.48;64.46;102205.66;5073907;28;20120;-64
2022/04/03 02:20:11;;;;;;;8.35;6.13;;;6.20;99.90;;;6.41;64.58;102208.94;5072653;28;20044;-60
2022/04/03 02:22:39;;;;;;;7.93;6.28;;;6.10;99.90;;;6.31;64.39;102203.34;5073923;28;20106;-60
2022/04/03 02:25:11;;;;;;;8.75;5.85;;;6.10;99.90;;;6.21;64.07;102211.75;5073767;28;20487;-60
2022/04/03 02:27:40;;;;;;;9.18;6.22;;;6.00;99.90;;;6.07;64.09;102207.78;5073653;28;20079;-60
2022/04/03 02:30:11;;;;;;;9.43;6.53;;;5.80;99.90;;;6.10;64.06;102207.88;5073465;28;20080;-60
2022/04/03 02:32:41;;;;;;;9.73;6.18;;;5.80;99.90;;;6.07;63.87;102212.13;5073496;28;20049;-60
2022/04/03 02:35:12;;;;;;;6.88;6.05;;;5.80;99.90;;;5.98;63.65;102186.41;5073637;28;20098;-61
2022/04/03 02:37:43;;;;;;;7.38;6.15;;;5.80;99.90;;;5.91;64.36;102209.78;5073595;28;20118;-60
2022/04/03 02:40:15;;;;;;;7.85;7.15;;;5.60;99.90;;;5.76;65.01;102219.69;5073836;28;20072;-60
2022/04/03 02:42:44;;;;;;;9.80;7.03;;;5.50;99.90;;;5.77;66.14;102211.88;5072660;28;20048;-61
2022/04/03 02:45:15;;;;;;;7.27;6.23;;;5.50;99.90;;;5.78;66.08;102228.53;5073598;28;20130;-60
2022/04/03 02:47:50;;;;;;;8.00;6.50;;;5.50;99.90;;;5.49;66.33;102175.88;5073536;28;20103;-60
2022/04/03 02:50:20;;;;;;;7.18;6.47;;;5.50;99.90;;;5.74;66.20;102222.28;5072522;28;20598;-61
2022/04/03 02:52:49;;;;;;;7.30;6.63;;;5.50;99.90;;;5.74;65.56;102214.41;5073455;28;20413;-60
2022/04/03 02:55:18;;;;;;;7.80;7.07;;;5.50;99.90;;;5.60;65.75;102198.97;5073417;28;20048;-60
2022/04/03 02:57:47;;;;;;;8.93;6.70;;;5.50;99.90;;;5.67;66.38;102222.00;5073547;28;20091;-60
2022/04/03 03:00:17;;;;;;;8.60;6.50;;;5.40;99.90;;;5.00;67.26;102098.81;5073511;28;20045;-61
2022/04/03 03:02:48;;;;;;;7.53;5.55;;;5.40;99.90;;;5.71;67.40;102214.28;5073616;28;20045;-60
2022/04/03 03:05:17;;;;;;;7.07;6.38;;;5.40;99.90;;;5.64;67.47;102219.25;5073337;28;20041;-60
2022/04/03 03:07:46;;;;;;;7.80;6.67;;;5.40;99.90;;;5.56;67.98;102218.06;5073821;28;20053;-60
2022/04/03 03:10:17;;;;;;;7.00;6.30;;;5.30;99.90;;;5.47;67.75;102210.75;5073590;28;20040;-60
2022/04/03 03:12:47;;;;;;;7.57;6.87;;;5.20;99.90;;;5.47;67.58;102218.63;5073412;28;20328;-60
2022/04/03 03:15:17;;;;;;;9.07;6.60;;;5.20;99.90;;;5.24;67.70;102182.75;5073523;28;20074;-60
2022/04/03 03:17:46;;;;;;;8.85;7.15;;;5.10;99.90;;;5.40;68.20;102219.25;5073116;28;20124;-60
2022/04/03 03:20:22;;;;;;;7.93;6.93;;;5.10;99.90;;;5.41;68.19;102210.53;5071521;28;20048;-60
2022/04/03 03:22:50;;;;;;;8.38;7.07;;;5.10;99.90;;;5.44;68.46;102210.63;5072813;28;20047;-60
2022/04/03 03:25:19;;;;;;;7.13;6.53;;;5.10;99.90;;;5.38;68.07;102211.28;5072476;28;20402;-60
2022/04/03 03:27:48;;;;;;;7.13;6.30;;;5.10;99.90;;;5.16;68.14;102197.31;5072878;28;20048;-60
2022/04/03 03:30:18;;;;;;;7.37;6.27;;;5.10;99.90;;;5.17;68.96;102218.34;5072812;28;20041;-60
2022/04/03 03:32:47;;;;;;;9.43;6.72;;;4.90;99.90;;;5.17;69.24;102210.47;5072898;28;20375;-60
2022/04/03 03:35:15;;;;;;;8.10;6.53;;;4.90;99.90;;;5.07;69.19;102181.22;5072451;28;20037;-60
2022/04/03 03:37:44;;;;;;;8.63;7.03;;;4.90;99.90;;;5.20;69.20;102207.09;5072768;28;20068;-60
2022/04/03 03:40:14;;;;;;;12.50;7.87;;;4.90;99.90;;;5.31;68.67;102206.66;5072411;28;20537;-60
2022/04/03 03:42:43;;;;;;;8.10;7.35;;;5.00;99.90;;;5.35;69.01;102211.19;5072526;28;20090;-60
2022/04/03 03:45:13;;;;;;;10.52;8.25;;;5.00;99.90;;;5.38;68.68;102210.41;5072345;28;20068;-60
2022/04/03 03:47:44;;;;;;;11.55;8.05;;;5.10;99.90;;;5.31;68.63;102204.03;5071110;28;20056;-60
2022/04/03 03:50:13;;;;;;;9.13;6.73;;;5.00;99.90;;;5.28;68.61;102209.13;5072273;28;20058;-60
2022/04/03 03:52:42;;;;;;;8.17;7.37;;;5.00;99.90;;;5.15;69.20;102214.75;5071045;28;20075;-60
2022/04/03 03:55:11;;;;;;;7.53;6.83;;;4.90;99.90;;;5.17;69.44;102207.84;5072332;28;20474;-60
2022/04/03 03:57:39;;;;;;;8.30;7.23;;;4.90;99.90;;;5.10;69.35;102213.69;5072293;28;20048;-60
2022/04/03 04:00:10;;;;;;;9.37;8.03;;;4.80;99.90;;;5.07;69.34;102208.31;5071980;28;20115;-60
2022/04/03 04:02:43;;;;;;;7.67;6.93;;;4.80;99.90;;;5.09;69.43;102216.28;5072034;28;20044;-60
2022/04/03 04:05:11;;;;;;;8.65;7.45;;;4.80;99.90;;;5.14;69.94;102213.00;5072087;28;20383;-60
2022/04/03 04:07:41;;;;;;;12.20;7.93;;;4.80;99.90;;;5.14;69.91;102214.72;5071870;28;20048;-60
2022/04/03 04:10:12;;;;;;;10.85;7.93;;;4.90;99.90;;;5.18;69.89;102216.63;5071978;28;20466;-60
2022/04/03 04:12:40;;;;;;;;;;;4.90;99.90;;;5.14;70.88;102219.94;5070931;28;20052;-60
2022/04/03 04:15:10;;;;;;;9.33;8.33;;;4.90;99.90;;;5.07;70.69;102204.81;5072289;28;19940;-60
2022/04/03 04:17:43;;;;;;;8.23;7.45;;;4.90;99.90;;;5.13;70.33;102224.28;5072005;28;20049;-60
2022/04/03 04:20:15;;;;;;;7.33;6.70;;;4.90;99.90;;;5.03;70.03;102216.91;5071930;28;20110;-60
2022/04/03 04:22:45;;;;;;;8.53;7.30;;;4.80;99.90;;;4.98;70.04;102233.28;5072124;28;20114;-60
2022/04/03 04:25:14;;;;;;;;;;;4.70;99.90;;;4.99;69.81;102236.00;5072889;28;20056;-60
2022/04/03 04:27:43;;;;;;;6.73;6.13;;;4.80;99.90;;;4.92;69.97;102254.91;5071940;28;20384;-60
2022/04/03 04:30:13;;;;;;;8.10;7.40;;;4.70;99.90;;;4.85;70.34;102226.66;5071727;28;20074;-60
2022/04/03 04:32:43;;;;;;;9.17;8.27;;;4.70;99.90;;;4.56;71.15;102180.94;5071864;28;20351;-60
2022/04/03 04:35:13;;;;;;;8.02;7.32;;;4.50;99.90;;;4.81;70.94;102232.63;5071942;28;20093;-60
2022/04/03 04:37:42;;;;;;;6.00;5.70;;;4.50;99.90;;;4.75;70.39;102239.31;5072492;28;20098;-60
2022/04/03 04:40:12;;;;;;;6.37;5.97;;;4.50;99.90;;;4.53;69.52;102237.53;5074444;28;20487;-60
2022/04/03 04:42:40;;;;;;;6.13;5.72;;;4.30;99.90;;;4.51;69.38;102221.75;5075855;28;20044;-60
2022/04/03 04:45:11;;;;;;;6.67;6.27;;;4.30;99.90;;;4.51;69.45;102229.63;5075909;28;20104;-60
2022/04/03 04:47:48;;;;;;;6.37;5.97;;;4.30;99.90;;;4.39;69.73;102230.84;5091394;28;20076;-60
2022/04/03 04:50:18;;;;;;;6.20;5.80;;;4.20;99.90;;;4.31;69.62;102220.06;5074489;28;20083;-61
2022/04/03 04:52:47;;;;;;;6.97;6.55;;;4.10;99.90;;;4.36;69.95;102236.84;5076140;28;20098;-61
2022/04/03 04:55:16;;;;;;;7.13;6.63;;;4.10;99.90;;;4.30;70.46;102227.81;5074645;28;20143;-60
2022/04/03 04:57:51;;;;;;;8.00;7.30;;;4.10;99.90;;;4.07;70.71;102212.84;5075547;28;20405;-60
2022/04/03 05:00:21;;;;;;;8.07;7.57;;;4.10;99.90;;;4.21;70.65;102225.72;5074279;28;20155;-60
2022/04/03 05:02:51;;;;;;;7.72;7.03;;;4.00;99.90;;;4.05;70.91;102202.31;5075175;28;20552;-60
2022/04/03 05:05:21;;;;;;;7.15;6.65;;;3.90;99.90;;;3.73;70.58;102158.19;5075161;28;20567;-60
2022/04/03 05:07:51;;;;;;;;;;;3.90;99.90;;;4.03;70.50;102227.53;5075782;28;20045;-60
2022/04/03 05:10:21;;;;;;;7.80;7.30;;;3.80;99.90;;;3.96;70.65;102230.72;5075589;28;19974;-60
2022/04/03 05:12:50;;;;;;;7.47;6.87;;;3.70;99.90;;;3.95;71.12;102228.06;5074909;28;20550;-60
2022/04/03 05:15:18;;;;;;;8.10;7.40;;;3.70;99.90;;;3.94;71.20;102221.91;5074893;28;20539;-60
2022/04/03 05:17:47;;;;;;;9.37;7.97;;;3.70;99.90;;;3.92;71.72;102223.56;5075093;28;20069;-60
2022/04/03 05:20:17;;;;;;;7.40;6.90;;;3.70;99.90;;;3.91;71.91;102224.38;5074764;28;20257;-60
2022/04/03 05:22:47;;;;;;;8.40;7.80;;;3.70;99.90;;;3.85;71.89;102215.38;5074841;28;20098;-60
2022/04/03 05:25:16;;;;;;;6.88;6.38;;;3.60;99.90;;;3.93;72.02;102220.09;5075435;28;20045;-60
2022/04/03 05:27:45;;;;;;;9.80;9.00;;;3.70;99.90;;;4.06;71.88;102222.44;5074934;28;20135;-60
2022/04/03 05:30:14;;;;;;;11.43;10.43;;;3.80;99.90;;;4.07;71.57;102219.00;5074746;28;20064;-60
2022/04/03 05:32:43;;;;;;;13.63;12.50;;;3.90;99.90;;;4.29;71.32;102226.94;5090572;28;20053;-61
2022/04/03 05:35:14;;;;;;;14.17;12.87;;;4.10;99.90;;;4.46;71.67;102227.66;5075030;28;20104;-60
2022/04/03 05:37:46;;;;;;;15.60;14.00;;;4.30;99.90;;;4.64;71.46;102224.91;5075211;28;20074;-61
2022/04/03 05:40:15;;;;;;;;;;;4.50;99.90;;;4.79;71.53;102228.13;5075844;28;20040;-61
2022/04/03 05:42:44;;;;;;;14.90;13.60;;;4.70;99.90;;;5.02;71.35;102229.94;5074961;28;19973;-60
2022/04/03 05:45:13;;;;;;;18.07;14.80;;;4.90;99.90;;;5.03;71.00;102224.75;5074596;28;20309;-60
2022/04/03 05:47:42;;;;;;;16.27;13.77;;;5.10;99.90;;;5.37;71.25;102225.25;5074805;28;20393;-60
2022/04/03 05:50:14;;;;;;;13.77;12.40;;;5.20;99.90;;;5.55;70.47;102225.06;5073840;28;20074;-61
2022/04/03 05:52:48;;;;;;;12.13;10.73;;;5.40;99.90;;;5.79;69.97;102225.09;5073803;28;20333;-60
2022/04/03 05:55:19;;;;;;;12.20;10.33;;;5.60;99.90;;;5.98;69.42;102223.19;5073449;28;20048;-61
2022/04/03 05:57:50;;;;;;;10.50;9.60;;;5.80;99.90;;;6.13;68.40;102215.88;5073439;28;20106;-60
2022/04/03 06:00:20;;;;;;;9.35;8.65;;;6.00;99.90;;;6.23;67.10;102223.19;5073692;28;20056;-61
2022/04/03 06:02:52;;;;;;;10.30;9.20;;;6.10;99.90;;;6.39;66.93;102225.53;5073802;28;20067;-60
2022/04/03 06:05:23;;;;;;;9.57;8.68;;;6.20;99.90;;;6.47;66.33;102202.13;5073403;28;20124;-60
2022/04/03 06:07:58;;;;;;;9.38;8.48;;;6.40;99.90;;;6.71;65.74;102223.97;5073492;28;20052;-60
2022/04/03 06:10:28;;;;;;;11.68;8.40;;;6.50;99.90;;;6.97;65.13;102230.06;5073212;28;20101;-61
2022/04/03 06:12:58;;;;;;;8.20;7.45;;;6.80;99.90;;;7.18;64.16;102242.16;5073122;28;20041;-62
2022/04/03 06:15:29;;;;;;;8.65;7.95;;;7.00;99.90;;;7.28;64.14;102241.59;5073337;28;20049;-63
2022/04/03 06:17:57;;;;;;;8.85;7.30;;;7.10;99.90;;;7.47;63.80;102247.44;5072283;28;20057;-61
2022/04/03 06:20:25;;;;;;;8.80;7.97;;;7.30;99.90;;;7.58;63.38;102243.38;5073332;28;20091;-61
2022/04/03 06:22:54;;;;;;;7.72;7.00;;;7.50;99.90;;;7.76;62.22;102260.59;5073102;28;20052;-61
2022/04/03 06:25:24;;;;;;;8.07;7.28;;;7.70;99.90;;;8.11;61.81;102259.88;5073260;28;20429;-61
2022/04/03 06:27:54;;;;;;;7.88;7.18;;;8.00;99.90;;;8.38;61.20;102256.25;5073468;28;20078;-63
2022/04/03 06:30:24;;;;;;;10.60;8.23;;;8.30;99.90;;;8.70;60.78;102260.59;5073434;28;20119;-61
2022/04/03 06:32:52;;;;;;;11.27;8.60;;;8.60;99.90;;;8.91;59.92;102243.56;5073292;28;20051;-61
2022/04/03 06:35:20;;;;;;;9.30;7.97;;;8.90;99.90;;;9.27;58.95;102266.41;5072856;28;20032;-63
2022/04/03 06:37:49;;;;;;;9.73;8.65;;;9.20;99.90;;;9.57;58.47;102270.63;5072579;28;20071;-61
2022/04/03 06:40:17;;;;;;;8.52;7.60;;;9.50;99.90;;;9.32;57.36;102177.63;5072786;28;20328;-62
2022/04/03 06:42:48;;;;;;;8.13;7.32;;;9.70;99.90;;;10.05;56.64;102270.78;5088260;28;20060;-62
2022/04/03 06:45:17;;;;;;;10.77;6.63;;;10.00;99.90;;;10.24;56.62;102266.78;5072720;28;20489;-61
2022/04/03 06:47:46;;;;;;;7.95;7.22;;;10.10;99.90;;;10.36;56.89;102269.63;5071356;28;20517;-62
2022/04/03 06:50:15;;;;;;;7.53;6.72;;;10.30;99.90;;;10.63;57.07;102278.09;5034330;28;1105400;-62
2022/04/03 06:52:43;;;;;;;7.85;6.82;;;10.40;99.90;;;10.90;56.46;102273.28;5073132;28;20064;-61
2022/04/03 06:55:12;;;;;;;7.30;6.63;;;10.70;99.90;;;11.12;55.60;102272.78;5073114;28;20068;-61
2022/04/03 06:57:40;;;;;;;9.02;6.97;;;10.90;99.90;;;11.33;54.96;102288.09;5073132;28;20189;-62
2022/04/03 07:00:13;;;;;;;8.00;7.22;;;11.10;99.90;;;11.48;54.66;102277.72;5072654;28;20040;-62
2022/04/03 07:02:41;;;;;;;8.27;6.53;;;11.30;99.90;;;11.68;54.56;102282.47;5072973;28;20456;-61
2022/04/03 07:05:10;;;;;;;7.63;6.43;;;11.50;99.90;;;11.89;53.70;102283.63;5073158;28;20453;-61
2022/04/03 07:07:39;;;;;;;8.15;6.60;;;11.70;99.90;;;11.99;53.50;102283.75;5073299;28;20075;-62
2022/04/03 07:10:09;;;;;;;9.38;5.93;;;11.90;99.90;;;12.27;52.90;102287.66;5073129;28;20048;-62
2022/04/03 07:12:38;;;;;;;6.97;6.28;;;12.00;99.90;;;12.46;52.68;102285.22;5072715;28;20074;-62
2022/04/03 07:15:11;;;;;;;8.88;6.78;;;12.30;99.90;;;12.63;52.12;102282.72;5072758;28;20421;-65
2022/04/03 07:17:42;;;;;;;8.48;6.57;;;12.40;99.90;;;12.83;51.67;102286.47;5073019;28;20044;-65
2022/04/03 07:20:13;;;;;;;6.70;5.85;;;12.60;99.90;;;13.03;51.59;102286.59;5073068;28;20040;-64
2022/04/03 07:22:43;;;;;;;7.75;5.43;;;12.70;99.90;;;13.18;51.21;102290.31;5072735;28;20375;-64
2022/04/03 07:25:12;;;;;;;5.63;4.85;;;13.00;99.90;;;13.34;49.91;102296.63;5072603;28;20397;-66
2022/04/03 07:27:41;;;;;;;7.13;5.13;;;13.10;99.90;;;13.46;50.02;102294.06;5072789;28;20043;-65
2022/04/03 07:30:13;;;;;;;7.65;4.95;;;13.20;99.90;;;13.60;49.67;102297.72;5072490;28;20366;-65
2022/04/03 07:32:42;;;;;;;6.95;4.82;;;13.40;99.90;;;13.76;48.02;102293.38;5072932;28;20048;-66
2022/04/03 07:35:12;;;;;;;8.07;4.45;;;13.40;99.90;;;13.72;46.45;102296.91;5072965;28;20040;-64
2022/04/03 07:37:41;;;;;;;8.60;4.65;;;13.40;99.90;;;13.54;46.52;102295.00;5072430;28;20048;-63
2022/04/03 07:40:11;;;;;;;5.78;4.53;;;13.30;99.90;;;13.24;47.22;102305.44;5073321;28;20082;-63
2022/04/03 07:42:40;;;;;;;5.30;4.88;;;13.00;99.90;;;13.11;47.52;102303.53;5072547;28;20139;-62
2022/04/03 07:45:11;;;;;;;8.02;5.05;;;12.90;99.90;;;12.82;47.74;102281.13;5075182;28;20040;-63
2022/04/03 07:47:48;;;;;;;;;;;12.70;99.90;;;12.26;49.00;102305.31;5074928;28;20082;-64
2022/04/03 07:50:19;;;;;;;8.68;4.93;;;12.20;99.90;;;12.01;49.33;102292.63;5081439;28;19974;-63
2022/04/03 07:52:48;;;;;;;5.97;4.47;;;11.80;99.90;;;11.94;49.21;102300.50;5076379;28;20052;-63
2022/04/03 07:55:17;;;;;;;7.13;4.75;;;11.70;99.90;;;11.88;49.38;102297.75;5072791;28;20127;-63
2022/04/03 07:57:46;;;;;;;6.75;4.93;;;11.60;99.90;;;11.70;49.72;102299.28;5072732;28;20037;-63
2022/04/03 08:00:16;;;;;;;6.00;5.05;;;11.50;99.90;;;11.60;50.22;102296.44;5072221;28;20032;-63
2022/04/03 08:02:45;;;;;;;7.53;5.83;;;11.30;99.90;;;11.49;50.94;102293.66;5070709;28;20187;-63
2022/04/03 08:05:15;;;;;;;6.93;5.00;;;11.20;99.90;;;11.44;51.20;102300.63;5072288;28;20028;-63
2022/04/03 08:07:49;;;;;;;6.82;5.15;;;11.20;99.90;;;11.46;51.92;102276.78;5071800;28;20048;-64
2022/04/03 08:10:20;;;;;;;6.43;5.00;;;11.30;99.90;;;11.84;51.49;102282.69;5071606;28;20131;-64
2022/04/03 08:12:50;;;;;;;7.80;5.05;;;11.60;99.90;;;12.29;50.56;102294.72;5071785;28;20063;-64
2022/04/03 08:15:20;;;;;;;8.38;5.00;;;12.00;99.90;;;12.43;49.65;102271.91;5070486;28;20109;-64
2022/04/03 08:17:49;;;;;;;9.30;5.25;;;12.40;99.90;;;12.48;49.44;102230.38;5071698;28;20058;-64
2022/04/03 08:20:19;;;;;;;5.50;4.63;;;12.60;99.90;;;13.18;48.81;102300.06;5070647;28;20052;-63
2022/04/03 08:22:49;;;;;;;5.93;4.72;;;12.90;99.90;;;13.39;47.87;102298.44;5072015;28;20059;-64
2022/04/03 08:25:19;;;;;;;6.07;4.60;;;13.20;99.90;;;13.61;46.94;102299.47;5071830;28;20412;-64
2022/04/03 08:27:49;;;;;;;6.18;4.40;;;13.30;99.90;;;13.79;46.94;102309.34;5070551;28;20765;-64
2022/04/03 08:30:21;;;;;;;5.38;4.57;;;13.50;99.90;;;13.72;45.95;102295.13;5070567;28;20048;-64
2022/04/03 08:32:50;;;;;;;5.72;4.50;;;13.60;99.90;;;13.95;45.76;102314.75;5071827;28;20059;-65
2022/04/03 08:35:23;;;;;;;6.57;4.45;;;13.70;99.90;;;14.19;45.08;102313.94;5071499;28;20048;-64
2022/04/03 08:37:52;;;;;;;6.25;4.70;;;13.90;99.90;;;14.28;45.21;102306.97;5071755;28;20051;-64
2022/04/03 08:40:23;;;;;;;5.00;4.15;;;14.00;99.90;;;14.48;45.51;102300.81;5071936;28;20127;-64
2022/04/03 08:42:53;;;;;;;4.43;4.03;;;14.20;99.90;;;14.46;44.55;102303.44;5071827;28;20110;-64
2022/04/03 08:45:22;;;;;;;6.15;4.18;;;14.20;99.90;;;14.45;45.39;102301.66;5072112;28;20087;-64
2022/04/03 08:47:53;;;;;;;6.85;4.28;;;14.20;99.90;;;14.18;44.06;102299.78;5072015;28;20131;-64
2022/04/03 08:50:26;;;;;;;;;;;14.00;99.90;;;13.19;46.04;102297.44;5071915;28;20379;-67
2022/04/03 08:52:59;;;;;;;6.25;3.53;;;13.20;99.90;;;11.87;47.99;102291.56;5071892;28;19921;-65
2022/04/03 08:55:28;;;;;;;4.68;3.60;;;12.00;99.90;;;11.37;49.05;102293.47;5071812;28;20041;-65
2022/04/03 08:57:57;;;;;;;4.45;3.13;;;11.40;99.90;;;11.16;50.59;102294.88;5072177;28;20045;-65
2022/04/03 09:00:26;;;;;;;4.50;3.28;;;11.00;99.90;;;11.09;50.06;102295.66;5072039;28;20052;-65
2022/04/03 09:02:55;;;;;;;5.70;3.63;;;10.80;99.90;;;10.19;52.02;102284.31;5071869;28;20087;-63
2022/04/03 09:05:37;;;;;;;3.90;3.05;;;10.20;99.90;;;10.14;52.18;102297.44;5070474;28;20095;-63
2022/04/03 09:08:07;;;;;;;5.03;3.78;;;9.80;99.90;;;10.17;52.57;102293.94;5070053;28;20056;-63
2022/04/03 09:10:37;;;;;;;6.70;4.18;;;9.90;99.90;;;10.16;53.38;102290.44;5071749;28;20131;-64
2022/04/03 09:13:06;;;;;;;3.78;3.42;;;9.90;99.90;;;10.06;52.71;102292.81;5071513;28;20037;-65
2022/04/03 09:15:34;;;;;;;6.97;3.50;;;9.80;99.90;;;10.09;52.23;102287.56;5087243;28;20044;-63
2022/04/03 09:18:06;;;;;;;5.25;3.28;;;9.80;99.90;;;10.16;52.09;102285.16;5071450;28;20044;-65
2022/04/03 09:20:37;;;;;;;5.35;3.33;;;9.90;99.90;;;10.04;51.27;102284.88;5071289;28;20048;-65
2022/04/03 09:23:08;;;;;;;7.70;4.00;;;9.80;99.90;;;10.34;50.65;102271.38;5072023;28;20075;-65
2022/04/03 09:25:40;;;;;;;3.78;3.38;;;10.10;99.90;;;10.51;49.75;102289.34;5075179;28;20140;-65
2022/04/03 09:28:12;;;;;;;4.65;3.33;;;10.30;99.90;;;10.16;50.45;102281.59;5075153;28;20181;-65
2022/04/03 09:30:44;;;;;;;6.38;3.63;;;10.10;99.90;;;10.01;50.21;102258.34;5074690;28;20402;-65
2022/04/03 09:33:19;;;;;;;8.60;3.50;;;10.00;99.90;;;9.42;52.01;102270.31;5073794;28;20387;-66
2022/04/03 09:35:58;;;;;;;4.32;3.40;;;9.50;99.90;;;9.45;53.34;102290.59;5074825;28;20131;-66
2022/04/03 09:38:28;;;;;;;9.00;3.58;;;9.20;99.90;;;9.71;53.34;102298.25;5074612;28;20051;-65
2022/04/03 09:40:59;;;;;;;3.97;3.17;;;9.40;99.90;;;9.73;52.84;102280.69;5073626;28;20060;-66
2022/04/03 09:43:35;;;;;;;7.05;4.38;;;9.50;99.90;;;9.18;52.66;102153.56;5073993;28;20154;-69
2022/04/03 09:46:06;;;;;;;6.25;3.83;;;9.60;99.90;;;10.02;53.46;102283.94;5075383;28;20048;-64
2022/04/03 09:48:39;;;;;;;6.97;3.90;;;9.80;99.90;;;10.17;54.14;102276.34;5074481;28;20060;-65
2022/04/03 09:51:11;;;;;;;5.38;3.47;;;10.00;99.90;;;10.20;53.68;102281.69;5074373;28;20505;-63
2022/04/03 09:53:45;;;;;;;7.85;3.53;;;10.00;99.90;;;10.10;52.91;102277.09;5074415;28;20049;-63
2022/04/03 09:56:16;;;;;;;7.32;3.00;;;9.90;99.90;;;9.84;54.11;102273.88;5074401;28;20419;-63
2022/04/03 09:59:03;;;;;;;7.38;3.42;;;9.70;99.90;;;9.83;53.29;102263.28;5074629;28;20056;-63
2022/04/03 10:01:34;;;;;;;6.05;3.30;;;9.70;99.90;;;10.03;53.37;102272.50;5074677;28;20082;-63
2022/04/03 10:04:05;;;;;;;4.10;3.20;;;9.80;99.90;;;10.18;53.16;102271.97;5074250;28;20133;-64
2022/04/03 10:06:36;;;;;;;;;;;9.90;99.90;;;10.25;53.53;102242.09;5074434;28;20041;-64
2022/04/03 10:09:04;;;;;;;4.80;2.90;;;10.10;99.90;;;10.55;51.96;102240.03;5074590;28;19921;-63
2022/04/03 10:11:32;;;;;;;6.57;4.00;;;10.40;99.90;;;10.54;51.16;102259.41;5072685;28;20435;-63
2022/04/03 10:14:03;;;;;;;6.30;3.35;;;10.40;99.90;;;10.49;51.20;102253.16;5074291;28;20105;-64
2022/04/03 10:16:31;;;;;;;7.32;3.97;;;10.30;99.90;;;10.67;51.71;102264.94;5074080;28;20051;-64
2022/04/03 10:19:00;;;;;;;5.65;3.20;;;10.40;99.90;;;10.80;52.58;102252.84;5073874;28;20056;-64
2022/04/03 10:21:36;;;;;;;4.95;3.20;;;10.60;99.90;;;10.53;52.61;102255.00;5073931;28;20074;-63
2022/04/03 10:24:11;;;;;;;8.30;3.28;;;10.50;99.90;;;10.59;52.35;102250.69;5073724;28;20044;-64
2022/04/03 10:26:42;;;;;;;3.88;3.45;;;10.40;99.90;;;10.78;51.82;102251.91;5074359;28;20056;-62
2022/04/03 10:29:12;;;;;;;4.53;3.20;;;10.60;99.90;;;10.51;51.23;102254.09;5073906;28;20044;-64
2022/04/03 10:31:55;;;;;;;4.07;3.67;;;10.30;99.90;;;10.51;50.33;102256.72;5073860;28;20070;-64
2022/04/03 10:34:24;;;;;;;4.95;3.80;;;10.40;99.90;;;10.42;52.54;102259.19;5073432;28;20048;-63